Time;durP1;ratioP1;P1;durP2;ratioP2;P2;SDS_P1;SDS_P2;PMS_P1;PMS_P2;Temp;Humidity;BMP_temperature;BMP_pressure;BME280_temperature;BME280_humidity;BME280_pressure;Samples;Min_cycle;Max_cycle;Signal;HPM_P1;HPM_P2
2023/12/21 00:00:52;;;;;;;4.82;0.90;;;21.60;97.90;;;;;;5050810;28;20038;-72
2023/12/21 00:03:19;;;;;;;7.50;0.88;;;21.60;98.00;;;;;;5057496;28;20033;-72
2023/12/21 00:05:51;;;;;;;6.45;0.60;;;21.40;98.30;;;;;;5056808;28;20385;-73
2023/12/21 00:08:22;;;;;;;6.03;0.80;;;21.30;98.90;;;;;;5051250;28;20025;-73
2023/12/21 00:10:49;;;;;;;8.55;1.13;;;21.30;99.10;;;;;;5053215;28;20776;-73
2023/12/21 00:13:17;;;;;;;4.28;0.85;;;21.30;99.20;;;;;;5050531;28;20036;-73
2023/12/21 00:15:44;;;;;;;5.43;1.00;;;21.40;99.10;;;;;;5044959;28;20090;-72
2023/12/21 00:18:11;;;;;;;6.57;1.17;;;21.40;98.80;;;;;;5048818;28;20070;-72
2023/12/21 00:20:39;;;;;;;4.13;1.05;;;21.20;99.30;;;;;;5049414;28;20100;-72
2023/12/21 00:23:06;;;;;;;8.30;1.10;;;21.00;99.70;;;;;;5050491;28;20040;-73
2023/12/21 00:25:34;;;;;;;7.07;1.00;;;21.00;99.90;;;;;;5046873;28;20449;-73
2023/12/21 00:28:02;;;;;;;8.15;1.65;;;21.10;99.90;;;;;;5031350;28;20059;-72
2023/12/21 00:30:29;;;;;;;5.35;1.00;;;21.20;99.90;;;;;;5048632;28;20038;-73
2023/12/21 00:32:56;;;;;;;7.63;1.40;;;21.20;99.90;;;;;;5052209;28;20029;-73
2023/12/21 00:35:28;;;;;;;9.23;1.17;;;21.30;99.60;;;;;;5031880;28;20032;-73
2023/12/21 00:38:22;;;;;;;8.05;1.80;;;21.30;99.60;;;;;;5050514;28;20022;-73
2023/12/21 00:40:49;;;;;;;8.43;1.52;;;21.40;98.90;;;;;;5024140;28;20037;-73
2023/12/21 00:43:17;;;;;;;7.40;1.25;;;21.40;98.30;;;;;;5049144;28;20048;-73
2023/12/21 00:45:53;;;;;;;7.72;1.50;;;21.40;98.20;;;;;;5051722;28;20044;-74
2023/12/21 00:48:21;;;;;;;9.93;1.70;;;21.40;98.40;;;;;;5052137;28;20078;-72
2023/12/21 00:50:51;;;;;;;8.85;1.50;;;21.40;98.20;;;;;;5054361;28;20048;-73
2023/12/21 00:53:22;;;;;;;10.68;1.58;;;21.50;97.90;;;;;;5049489;28;20036;-73
2023/12/21 00:55:49;;;;;;;12.00;2.20;;;21.40;98.10;;;;;;5056474;28;20069;-73
2023/12/21 00:58:20;;;;;;;8.45;1.90;;;21.40;98.20;;;;;;5054482;28;20029;-74
2023/12/21 01:00:47;;;;;;;9.63;1.65;;;21.40;97.60;;;;;;5058392;28;20028;-73
2023/12/21 01:03:15;;;;;;;8.95;2.20;;;21.60;97.60;;;;;;5053670;28;20123;-73
2023/12/21 01:05:42;;;;;;;12.85;2.05;;;21.70;97.70;;;;;;5040454;28;20025;-74
2023/12/21 01:08:10;;;;;;;8.23;1.60;;;21.80;96.90;;;;;;5058905;28;20043;-73
2023/12/21 01:10:38;;;;;;;13.57;2.13;;;21.80;97.00;;;;;;5054959;28;20032;-73
2023/12/21 01:13:06;;;;;;;14.57;2.88;;;21.90;96.60;;;;;;5054021;28;20062;-73
2023/12/21 01:15:34;;;;;;;9.85;1.73;;;21.90;96.80;;;;;;5059844;28;20044;-73
2023/12/21 01:18:01;;;;;;;12.10;2.38;;;21.90;96.70;;;;;;5055789;28;20029;-73
2023/12/21 01:20:28;;;;;;;10.55;2.08;;;22.00;96.90;;;;;;5047488;28;20028;-73
2023/12/21 01:22:56;;;;;;;10.43;2.30;;;22.00;97.00;;;;;;5040662;28;20163;-73
2023/12/21 01:25:23;;;;;;;16.00;2.55;;;22.00;97.00;;;;;;5060293;28;20377;-73
2023/12/21 01:27:50;;;;;;;11.60;2.20;;;22.20;96.80;;;;;;5054475;28;20076;-73
2023/12/21 01:30:18;;;;;;;11.50;2.00;;;22.20;96.70;;;;;;5057050;28;20037;-74
2023/12/21 01:32:45;;;;;;;16.10;2.38;;;22.10;96.50;;;;;;5055965;28;20021;-73
2023/12/21 01:35:12;;;;;;;22.10;2.88;;;22.20;95.90;;;;;;5058567;28;20025;-73
2023/12/21 01:37:40;;;;;;;20.98;3.08;;;22.30;95.90;;;;;;5056516;28;20024;-73
2023/12/21 01:40:08;;;;;;;10.40;1.88;;;22.50;95.40;;;;;;5059601;28;20508;-74
2023/12/21 01:42:35;;;;;;;16.83;2.40;;;22.70;94.80;;;;;;5047454;28;20098;-72
2023/12/21 01:45:02;;;;;;;23.38;2.45;;;23.00;94.80;;;;;;5039576;28;20362;-73
2023/12/21 01:47:31;;;;;;;14.50;2.00;;;23.60;94.60;;;;;;5050647;28;20052;-74
2023/12/21 01:49:58;;;;;;;10.20;1.75;;;24.10;93.40;;;;;;5048174;28;20504;-74
2023/12/21 01:52:26;;;;;;;13.68;2.22;;;24.20;92.90;;;;;;5057069;28;20500;-73
2023/12/21 01:54:54;;;;;;;10.98;1.92;;;24.10;92.60;;;;;;5051892;28;20426;-73
2023/12/21 01:57:22;;;;;;;12.02;1.70;;;23.80;92.30;;;;;;5050522;28;20017;-74
2023/12/21 01:59:51;;;;;;;11.38;2.78;;;23.60;92.70;;;;;;5052188;28;20411;-73
2023/12/21 02:02:18;;;;;;;9.95;2.10;;;23.60;92.60;;;;;;5047542;28;20485;-73
2023/12/21 02:04:47;;;;;;;13.63;2.20;;;23.30;93.30;;;;;;5046671;28;20138;-73
2023/12/21 02:07:15;;;;;;;21.25;2.42;;;23.10;94.10;;;;;;5055133;28;20131;-73
2023/12/21 02:09:42;;;;;;;13.20;2.17;;;23.00;94.00;;;;;;5058062;28;20063;-73
2023/12/21 02:12:10;;;;;;;14.18;1.92;;;23.00;93.90;;;;;;5048991;28;20036;-73
2023/12/21 02:14:37;;;;;;;18.33;2.25;;;22.90;93.90;;;;;;5054269;28;20032;-74
2023/12/21 02:17:10;;;;;;;11.57;2.53;;;22.70;94.30;;;;;;5048630;28;20037;-73
2023/12/21 02:19:40;;;;;;;16.17;2.20;;;22.80;94.30;;;;;;5055515;28;20115;-74
2023/12/21 02:22:08;;;;;;;13.68;2.45;;;22.90;94.00;;;;;;5059930;28;20042;-73
2023/12/21 02:24:36;;;;;;;16.85;2.30;;;23.00;94.00;;;;;;5055402;28;20026;-74
2023/12/21 02:27:04;;;;;;;15.45;3.13;;;23.50;94.00;;;;;;5053384;28;20029;-73
2023/12/21 02:29:32;;;;;;;13.55;2.22;;;24.10;93.00;;;;;;5055664;28;20031;-73
2023/12/21 02:31:59;;;;;;;16.40;2.20;;;24.10;91.70;;;;;;5051548;28;20033;-73
2023/12/21 02:34:26;;;;;;;18.90;2.80;;;24.30;91.60;;;;;;5050130;28;20028;-74
2023/12/21 02:36:54;;;;;;;13.35;2.42;;;24.50;91.30;;;;;;5051878;28;20025;-73
2023/12/21 02:39:21;;;;;;;11.70;2.83;;;24.80;90.70;;;;;;5035673;28;20044;-73
2023/12/21 02:41:50;;;;;;;16.88;2.33;;;24.50;90.80;;;;;;5030719;28;20029;-74
2023/12/21 02:44:18;;;;;;;18.80;2.58;;;24.40;90.80;;;;;;5053161;28;20103;-73
2023/12/21 02:46:45;;;;;;;16.15;1.92;;;24.20;91.30;;;;;;5053332;28;20044;-74
2023/12/21 02:49:13;;;;;;;10.90;2.15;;;24.20;91.50;;;;;;5052178;28;20377;-73
2023/12/21 02:51:40;;;;;;;16.52;3.05;;;24.20;91.60;;;;;;4947342;28;3082843;-73
2023/12/21 02:54:28;;;;;;;16.60;2.22;;;24.30;92.00;;;;;;5053250;28;20466;-73
2023/12/21 02:56:56;;;;;;;14.45;2.15;;;24.10;93.30;;;;;;5053327;28;20029;-73
2023/12/21 02:59:24;;;;;;;16.40;2.75;;;23.80;94.70;;;;;;5054055;28;20104;-73
2023/12/21 03:01:51;;;;;;;15.48;2.63;;;23.50;95.60;;;;;;5056864;28;20025;-73
2023/12/21 03:04:19;;;;;;;13.65;2.30;;;23.60;96.00;;;;;;5057152;28;20035;-73
2023/12/21 03:06:46;;;;;;;13.07;2.10;;;23.30;96.10;;;;;;5052366;28;20083;-73
2023/12/21 03:09:14;;;;;;;17.58;2.13;;;23.10;95.40;;;;;;5055063;28;20037;-73
2023/12/21 03:11:42;;;;;;;13.13;1.90;;;23.00;95.80;;;;;;5058357;28;20405;-74
2023/12/21 03:14:09;;;;;;;13.57;2.42;;;22.80;95.50;;;;;;5054073;28;20040;-73
2023/12/21 03:16:36;;;;;;;13.80;2.60;;;22.50;95.70;;;;;;5055258;28;20033;-73
2023/12/21 03:19:04;;;;;;;15.38;3.08;;;22.20;96.20;;;;;;5057706;28;20029;-74
2023/12/21 03:21:31;;;;;;;13.23;1.85;;;22.10;95.70;;;;;;5053305;28;21642;-74
2023/12/21 03:23:58;;;;;;;15.60;2.97;;;21.90;96.30;;;;;;5056297;28;20373;-73
2023/12/21 03:26:26;;;;;;;16.58;2.33;;;21.90;96.60;;;;;;5030639;28;20514;-73
2023/12/21 03:28:54;;;;;;;12.55;1.70;;;21.90;96.60;;;;;;5048464;28;20391;-74
2023/12/21 03:31:21;;;;;;;11.73;2.42;;;22.20;95.60;;;;;;5051440;28;20483;-74
2023/12/21 03:33:48;;;;;;;12.50;1.52;;;22.40;95.60;;;;;;5052260;28;20093;-74
2023/12/21 03:36:17;;;;;;;12.95;2.08;;;22.80;94.90;;;;;;5050281;28;20029;-73
2023/12/21 03:38:44;;;;;;;14.68;2.42;;;23.10;94.30;;;;;;5049180;28;20480;-74
2023/12/21 03:41:12;;;;;;;16.00;2.17;;;23.60;93.30;;;;;;5048299;28;20082;-73
2023/12/21 03:43:39;;;;;;;19.50;2.67;;;24.00;92.50;;;;;;5027065;28;20473;-73
2023/12/21 03:46:10;;;;;;;14.43;2.80;;;24.10;91.40;;;;;;5058233;28;20029;-74
2023/12/21 03:48:37;;;;;;;17.20;2.20;;;24.20;91.20;;;;;;5051009;28;20059;-72
2023/12/21 03:51:05;;;;;;;15.85;2.80;;;24.30;90.80;;;;;;5050690;28;20102;-73
2023/12/21 03:53:35;;;;;;;14.60;2.58;;;24.40;91.40;;;;;;5056258;28;20055;-73
2023/12/21 03:56:03;;;;;;;13.18;2.78;;;25.10;90.30;;;;;;5045262;28;20078;-73
2023/12/21 03:58:30;;;;;;;13.65;2.45;;;25.80;90.30;;;;;;5043567;28;20586;-73
2023/12/21 04:00:57;;;;;;;13.45;2.50;;;26.00;88.50;;;;;;5048605;28;20055;-73
2023/12/21 04:03:25;;;;;;;14.00;2.35;;;25.80;89.10;;;;;;5051401;28;20553;-73
2023/12/21 04:05:53;;;;;;;11.20;2.08;;;25.40;86.60;;;;;;5055180;28;20063;-73
2023/12/21 04:08:21;;;;;;;14.63;2.00;;;24.80;87.40;;;;;;5049757;28;20109;-73
2023/12/21 04:10:48;;;;;;;14.27;2.95;;;24.80;88.60;;;;;;5048516;28;20028;-73
2023/12/21 04:13:16;;;;;;;15.75;2.40;;;24.90;88.40;;;;;;5048726;28;20052;-72
2023/12/21 04:15:44;;;;;;;18.02;2.85;;;25.20;88.50;;;;;;5053704;28;20107;-72
2023/12/21 04:18:11;;;;;;;12.88;2.53;;;25.60;87.00;;;;;;5050363;28;20125;-73
2023/12/21 04:20:39;;;;;;;15.45;2.25;;;25.60;85.80;;;;;;5053962;28;20361;-73
2023/12/21 04:23:06;;;;;;;12.45;2.63;;;25.60;85.40;;;;;;5054389;28;20028;-72
2023/12/21 04:25:33;;;;;;;13.98;2.47;;;25.70;83.90;;;;;;5053833;28;20040;-72
2023/12/21 04:28:02;;;;;;;12.23;2.33;;;25.60;83.20;;;;;;5055434;28;20032;-73
2023/12/21 04:30:29;;;;;;;16.27;3.28;;;25.30;84.80;;;;;;5055734;28;20044;-73
2023/12/21 04:32:56;;;;;;;18.35;2.65;;;25.20;84.40;;;;;;5055980;28;20381;-73
2023/12/21 04:35:24;;;;;;;19.70;2.75;;;25.00;84.20;;;;;;5058394;28;20020;-73
2023/12/21 04:37:51;;;;;;;16.92;2.47;;;24.90;85.70;;;;;;5055773;28;20017;-73
2023/12/21 04:40:18;;;;;;;19.20;2.78;;;24.80;85.70;;;;;;5055431;28;20009;-72
2023/12/21 04:42:52;;;;;;;15.02;2.85;;;25.00;84.90;;;;;;5053637;28;20363;-73
2023/12/21 04:45:19;;;;;;;16.27;2.80;;;25.30;83.20;;;;;;5056600;28;20077;-73
2023/12/21 04:47:46;;;;;;;12.90;2.88;;;25.60;82.70;;;;;;5055060;28;20086;-73
2023/12/21 04:50:14;;;;;;;17.65;2.58;;;25.40;81.90;;;;;;5054690;28;20037;-73
2023/12/21 04:52:41;;;;;;;12.75;2.20;;;25.10;82.50;;;;;;5054835;28;20112;-73
2023/12/21 04:55:09;;;;;;;14.30;2.40;;;25.00;82.50;;;;;;5049713;28;20052;-73
2023/12/21 04:57:36;;;;;;;16.27;2.65;;;25.10;82.60;;;;;;5049729;28;20020;-73
2023/12/21 05:00:06;;;;;;;19.85;3.10;;;25.40;83.00;;;;;;5054747;28;20044;-73
2023/12/21 05:02:34;;;;;;;9.77;2.35;;;25.70;81.60;;;;;;5053296;28;20036;-73
2023/12/21 05:05:02;;;;;;;13.77;2.30;;;25.50;81.70;;;;;;5055982;28;20082;-72
2023/12/21 05:07:30;;;;;;;16.13;2.47;;;25.20;81.90;;;;;;5049880;28;20065;-73
2023/12/21 05:10:00;;;;;;;21.40;3.10;;;25.00;82.90;;;;;;5059724;28;20032;-73
2023/12/21 05:12:27;;;;;;;12.32;2.38;;;24.70;83.60;;;;;;5051192;28;20044;-73
2023/12/21 05:14:55;;;;;;;14.43;2.83;;;24.70;83.60;;;;;;5047764;28;20120;-74
2023/12/21 05:17:22;;;;;;;14.65;2.33;;;24.70;84.30;;;;;;5052455;28;20466;-74
2023/12/21 05:19:50;;;;;;;15.88;3.13;;;24.90;83.50;;;;;;5045490;28;20032;-72
2023/12/21 05:22:21;;;;;;;13.18;2.05;;;24.70;82.50;;;;;;5047837;28;20045;-72
2023/12/21 05:24:48;;;;;;;15.30;2.25;;;24.80;81.40;;;;;;5049631;28;20028;-72
2023/12/21 05:27:16;;;;;;;14.77;1.98;;;25.10;81.90;;;;;;5044460;28;20144;-73
2023/12/21 05:29:44;;;;;;;12.30;2.22;;;25.40;81.00;;;;;;5047324;28;20525;-72
2023/12/21 05:32:11;;;;;;;14.38;2.30;;;25.10;80.80;;;;;;5048827;28;20044;-72
2023/12/21 05:34:39;;;;;;;14.52;2.90;;;24.80;80.50;;;;;;5041529;28;20020;-71
2023/12/21 05:37:09;;;;;;;16.17;2.88;;;24.70;81.90;;;;;;5047069;28;20443;-72
2023/12/21 05:39:37;;;;;;;13.75;2.97;;;24.70;82.20;;;;;;5047378;28;20029;-71
2023/12/21 05:42:05;;;;;;;15.15;2.83;;;24.60;83.00;;;;;;5043845;28;20064;-71
2023/12/21 05:44:57;;;;;;;11.73;2.42;;;24.70;83.10;;;;;;5050650;28;20117;-72
2023/12/21 05:47:24;;;;;;;12.75;2.15;;;24.70;82.30;;;;;;5046864;28;20092;-73
2023/12/21 05:49:52;;;;;;;14.60;1.90;;;24.90;82.70;;;;;;5053431;28;20032;-74
2023/12/21 05:52:19;;;;;;;18.08;2.13;;;25.10;80.90;;;;;;5055223;28;20098;-72
2023/12/21 05:54:47;;;;;;;12.30;2.53;;;25.00;81.20;;;;;;5050808;28;20029;-72
2023/12/21 05:57:15;;;;;;;14.45;2.13;;;24.90;82.10;;;;;;5049158;28;20445;-72
2023/12/21 05:59:43;;;;;;;11.00;2.25;;;24.90;81.00;;;;;;5057101;28;20052;-72
2023/12/21 06:02:11;;;;;;;13.15;2.33;;;24.80;80.40;;;;;;5052481;28;20474;-72
2023/12/21 06:04:38;;;;;;;19.90;2.92;;;24.70;81.80;;;;;;5054037;28;20462;-72
2023/12/21 06:07:06;;;;;;;14.60;2.30;;;25.10;82.00;;;;;;5053660;28;20017;-72
2023/12/21 06:09:33;;;;;;;16.77;2.65;;;25.30;81.40;;;;;;5053249;28;20021;-72
2023/12/21 06:12:01;;;;;;;13.20;2.70;;;25.80;80.00;;;;;;5055853;28;20120;-72
2023/12/21 06:14:28;;;;;;;12.18;2.78;;;25.80;79.40;;;;;;5055868;28;20525;-73
2023/12/21 06:16:55;;;;;;;18.73;3.05;;;25.30;80.60;;;;;;5053726;28;20017;-74
2023/12/21 06:19:26;;;;;;;14.13;2.83;;;24.80;81.30;;;;;;5053740;28;20098;-73
2023/12/21 06:21:53;;;;;;;15.98;2.70;;;24.40;81.50;;;;;;5039769;28;20033;-73
2023/12/21 06:24:21;;;;;;;15.00;2.42;;;24.10;82.10;;;;;;5056346;28;20144;-73
2023/12/21 06:26:51;;;;;;;16.10;3.28;;;23.90;82.60;;;;;;5052343;28;20025;-73
2023/12/21 06:29:19;;;;;;;13.82;2.65;;;23.80;82.90;;;;;;5052093;28;20056;-73
2023/12/21 06:31:46;;;;;;;18.58;3.30;;;23.70;83.20;;;;;;5039034;28;20049;-72
2023/12/21 06:34:19;;;;;;;15.13;3.45;;;23.70;83.00;;;;;;5056459;28;20024;-72
2023/12/21 06:36:47;;;;;;;18.77;3.15;;;23.70;83.30;;;;;;5056943;28;20254;-72
2023/12/21 06:39:18;;;;;;;21.23;3.38;;;23.50;83.80;;;;;;5051960;28;20372;-73
2023/12/21 06:41:46;;;;;;;16.80;2.95;;;23.60;83.60;;;;;;5052339;28;20036;-72
2023/12/21 06:44:14;;;;;;;14.07;2.72;;;23.70;83.40;;;;;;5056298;28;20029;-72
2023/12/21 06:46:42;;;;;;;18.05;2.72;;;23.70;84.00;;;;;;5050246;28;20025;-73
2023/12/21 06:49:12;;;;;;;18.10;3.20;;;23.80;84.20;;;;;;5050830;28;20124;-73
2023/12/21 06:51:41;;;;;;;12.98;2.70;;;23.70;84.70;;;;;;5051508;28;20068;-69
2023/12/21 06:54:08;;;;;;;14.35;3.05;;;23.80;83.80;;;;;;5044902;28;20195;-71
2023/12/21 06:56:36;;;;;;;16.90;3.03;;;23.70;83.30;;;;;;5032498;28;20361;-70
2023/12/21 06:59:04;;;;;;;18.60;2.90;;;23.50;83.30;;;;;;5049776;28;20533;-68
2023/12/21 07:01:33;;;;;;;26.63;3.40;;;23.40;83.70;;;;;;5046879;28;20383;-71
2023/12/21 07:04:00;;;;;;;13.20;3.15;;;23.30;84.40;;;;;;5047205;28;20025;-70
2023/12/21 07:06:28;;;;;;;17.50;3.30;;;23.30;84.70;;;;;;5052864;28;20103;-72
2023/12/21 07:08:56;;;;;;;13.23;2.47;;;23.40;84.90;;;;;;5052167;28;20033;-71
2023/12/21 07:11:23;;;;;;;15.48;3.72;;;23.30;85.20;;;;;;5056707;28;20072;-70
2023/12/21 07:13:51;;;;;;;13.38;2.30;;;23.40;85.30;;;;;;5047387;28;20029;-71
2023/12/21 07:16:19;;;;;;;18.90;2.53;;;23.40;84.70;;;;;;5053150;28;20029;-72
2023/12/21 07:18:46;;;;;;;19.35;3.58;;;23.40;84.60;;;;;;5040612;28;20470;-72
2023/12/21 07:21:14;;;;;;;15.90;2.67;;;23.30;84.50;;;;;;5046654;28;20029;-71
2023/12/21 07:23:41;;;;;;;17.33;2.83;;;23.30;85.20;;;;;;5035471;28;20037;-72
2023/12/21 07:26:11;;;;;;;19.17;3.33;;;23.10;85.80;;;;;;5049856;28;20036;-72
2023/12/21 07:28:40;;;;;;;14.95;2.80;;;23.20;85.50;;;;;;5049872;28;20031;-73
2023/12/21 07:31:07;;;;;;;14.82;2.25;;;23.10;84.90;;;;;;5052169;28;20946;-74
2023/12/21 07:33:35;;;;;;;18.23;2.88;;;23.00;85.70;;;;;;5054106;28;20039;-73
2023/12/21 07:36:02;;;;;;;14.77;3.03;;;22.90;86.30;;;;;;5050627;28;20028;-74
2023/12/21 07:38:30;;;;;;;18.23;2.67;;;23.00;86.60;;;;;;5053718;28;20039;-73
2023/12/21 07:40:57;;;;;;;18.58;2.88;;;23.10;85.20;;;;;;5055158;28;20037;-73
2023/12/21 07:43:25;;;;;;;18.27;3.08;;;23.00;84.90;;;;;;5050800;28;20112;-74
2023/12/21 07:45:52;;;;;;;10.68;2.42;;;23.10;85.40;;;;;;5051144;28;20171;-73
2023/12/21 07:48:20;;;;;;;13.77;2.33;;;23.20;84.90;;;;;;5052802;28;20064;-72
2023/12/21 07:50:47;;;;;;;14.98;2.80;;;23.10;84.80;;;;;;5052618;28;20088;-72
2023/12/21 07:53:15;;;;;;;15.10;2.28;;;23.00;85.20;;;;;;5056462;28;20032;-73
2023/12/21 07:55:42;;;;;;;15.57;2.58;;;22.90;85.20;;;;;;5027599;28;20040;-73
2023/12/21 07:58:09;;;;;;;20.80;2.60;;;22.90;85.40;;;;;;5050456;28;20017;-73
2023/12/21 08:01:02;;;;;;;17.77;2.72;;;23.00;84.80;;;;;;5054086;28;20486;-73
2023/12/21 08:03:29;;;;;;;20.95;2.80;;;23.00;84.50;;;;;;5036326;28;20060;-73
2023/12/21 08:05:57;;;;;;;11.27;1.85;;;22.90;83.70;;;;;;5033984;28;20044;-73
2023/12/21 08:08:24;;;;;;;16.02;2.45;;;22.70;83.60;;;;;;5047521;28;20052;-73
2023/12/21 08:10:52;;;;;;;12.80;2.53;;;22.80;84.20;;;;;;5048263;28;20052;-73
2023/12/21 08:13:19;;;;;;;11.98;2.45;;;22.80;84.00;;;;;;5049288;28;20028;-73
2023/12/21 08:15:46;;;;;;;15.40;2.63;;;22.70;83.80;;;;;;5053018;28;20462;-73
2023/12/21 08:18:14;;;;;;;16.02;2.67;;;22.60;83.60;;;;;;5050475;28;20474;-72
2023/12/21 08:20:42;;;;;;;16.77;2.90;;;22.90;83.60;;;;;;5047100;28;20079;-73
2023/12/21 08:23:10;;;;;;;14.57;2.58;;;22.70;84.10;;;;;;5046642;28;20039;-72
2023/12/21 08:25:45;;;;;;;13.57;2.45;;;22.60;83.60;;;;;;5052705;28;20029;-73
2023/12/21 08:28:12;;;;;;;17.42;2.58;;;22.50;85.10;;;;;;5050402;28;20032;-72
2023/12/21 08:30:41;;;;;;;13.82;2.22;;;22.40;84.90;;;;;;5051625;28;20102;-72
2023/12/21 08:33:09;;;;;;;17.80;3.00;;;22.40;85.20;;;;;;5045839;28;20079;-71
2023/12/21 08:35:36;;;;;;;12.77;2.13;;;22.30;85.80;;;;;;5047678;28;20119;-72
2023/12/21 08:38:05;;;;;;;17.25;1.85;;;22.30;85.70;;;;;;5051014;28;20032;-71
2023/12/21 08:40:32;;;;;;;18.58;2.88;;;22.20;85.90;;;;;;5045541;28;20289;-71
2023/12/21 08:43:04;;;;;;;22.35;2.45;;;22.10;85.90;;;;;;5047551;28;20036;-72
2023/12/21 08:45:32;;;;;;;16.15;2.20;;;22.10;85.30;;;;;;5046757;28;20032;-72
2023/12/21 08:47:59;;;;;;;19.20;2.53;;;21.90;85.80;;;;;;5026216;28;20119;-73
2023/12/21 08:50:27;;;;;;;12.75;2.78;;;22.00;85.90;;;;;;5048307;28;20101;-71
2023/12/21 08:52:54;;;;;;;8.93;1.92;;;22.00;85.10;;;;;;5048343;28;20366;-74
2023/12/21 08:55:22;;;;;;;18.52;2.63;;;22.00;85.50;;;;;;5048174;28;20440;-72
2023/12/21 08:57:52;;;;;;;13.38;2.10;;;22.00;84.60;;;;;;5030994;28;20033;-71
2023/12/21 09:00:19;;;;;;;18.33;2.25;;;21.80;84.80;;;;;;5049617;28;20040;-73
2023/12/21 09:02:47;;;;;;;11.38;1.95;;;21.80;85.70;;;;;;5051048;28;20029;-71
2023/12/21 09:05:14;;;;;;;15.10;2.60;;;21.80;85.30;;;;;;5052718;28;20115;-72
2023/12/21 09:07:42;;;;;;;14.63;2.67;;;21.70;86.10;;;;;;5051758;28;20064;-71
2023/12/21 09:10:10;;;;;;;15.27;2.03;;;21.60;86.40;;;;;;5054082;28;20071;-71
2023/12/21 09:12:41;;;;;;;22.30;2.95;;;21.60;86.60;;;;;;5051869;28;20033;-71
2023/12/21 09:15:12;;;;;;;14.15;2.47;;;21.60;86.70;;;;;;5054676;28;20351;-71
2023/12/21 09:17:40;;;;;;;14.13;3.08;;;21.60;87.10;;;;;;5035548;28;20064;-71
2023/12/21 09:20:09;;;;;;;16.13;2.55;;;21.60;87.10;;;;;;5033066;28;20385;-71
2023/12/21 09:22:37;;;;;;;17.13;2.88;;;21.70;86.90;;;;;;5051797;28;20116;-72
2023/12/21 09:25:08;;;;;;;20.75;2.67;;;21.40;87.80;;;;;;5057166;28;20036;-72
2023/12/21 09:28:02;;;;;;;14.20;3.03;;;21.40;88.00;;;;;;5036548;28;20466;-71
2023/12/21 09:31:05;;;;;;;19.77;2.88;;;21.40;88.20;;;;;;5055113;28;20383;-73
2023/12/21 09:33:59;;;;;;;19.95;2.40;;;21.50;87.90;;;;;;5050309;28;20342;-72
2023/12/21 09:36:46;;;;;;;14.40;2.67;;;21.50;87.90;;;;;;5055233;28;20037;-72
2023/12/21 09:39:21;;;;;;;13.60;2.55;;;21.50;87.40;;;;;;5039998;28;20505;-72
2023/12/21 09:41:49;;;;;;;11.18;2.13;;;21.40;88.00;;;;;;5048415;28;20048;-72
2023/12/21 09:44:18;;;;;;;15.07;2.58;;;21.30;88.20;;;;;;5055643;28;20028;-71
2023/12/21 09:46:50;;;;;;;28.88;2.78;;;21.20;88.60;;;;;;5054203;28;20370;-72
2023/12/21 09:49:18;;;;;;;17.60;2.47;;;21.30;88.50;;;;;;5048461;28;20111;-73
2023/12/21 09:51:47;;;;;;;17.63;3.22;;;21.40;88.60;;;;;;5020224;28;20549;-72
2023/12/21 09:54:17;;;;;;;25.10;3.15;;;21.30;89.10;;;;;;5035733;28;20025;-72
2023/12/21 09:56:50;;;;;;;19.77;2.67;;;21.20;89.50;;;;;;5012772;28;20025;-73
2023/12/21 09:59:18;;;;;;;19.60;2.80;;;21.20;89.60;;;;;;5039235;28;20037;-71
2023/12/21 10:01:45;;;;;;;20.58;2.85;;;21.40;89.50;;;;;;5012182;28;20034;-72
2023/12/21 10:04:13;;;;;;;12.15;2.47;;;21.20;90.00;;;;;;5028286;28;20026;-72
2023/12/21 10:06:40;;;;;;;16.52;2.70;;;21.30;90.00;;;;;;5010681;28;20045;-71
2023/12/21 10:09:08;;;;;;;14.68;2.97;;;21.30;90.10;;;;;;5012180;28;20056;-72
2023/12/21 10:11:36;;;;;;;19.88;3.40;;;21.30;90.00;;;;;;5014804;28;20048;-72
2023/12/21 10:14:04;;;;;;;17.17;3.10;;;21.10;90.30;;;;;;5043050;28;20482;-73
2023/12/21 10:16:32;;;;;;;22.17;3.03;;;21.10;90.40;;;;;;5029868;28;20025;-73
2023/12/21 10:18:59;;;;;;;24.00;3.35;;;21.00;90.50;;;;;;5033249;28;20026;-72
2023/12/21 10:21:26;;;;;;;16.02;2.70;;;20.90;90.70;;;;;;5042599;28;20056;-73
2023/12/21 10:23:56;;;;;;;16.25;2.65;;;20.80;90.90;;;;;;5037358;28;20121;-73
2023/12/21 10:26:23;;;;;;;20.33;3.30;;;20.80;91.10;;;;;;5033878;28;20059;-73
2023/12/21 10:28:54;;;;;;;33.40;4.28;;;20.80;91.10;;;;;;5034656;28;20025;-73
2023/12/21 10:31:22;;;;;;;24.05;2.92;;;20.60;91.60;;;;;;5031704;28;20040;-72
2023/12/21 10:33:50;;;;;;;26.70;3.42;;;20.50;91.70;;;;;;5038783;28;20032;-73
2023/12/21 10:36:17;;;;;;;20.95;2.45;;;20.30;92.30;;;;;;5038822;28;20076;-73
2023/12/21 10:38:45;;;;;;;11.00;2.40;;;20.30;92.40;;;;;;5035386;28;20025;-72
2023/12/21 10:41:12;;;;;;;26.00;2.70;;;20.20;92.60;;;;;;5036433;28;20025;-72
2023/12/21 10:43:40;;;;;;;17.75;2.97;;;20.10;92.70;;;;;;5016894;28;20033;-72
2023/12/21 10:46:09;;;;;;;22.77;3.85;;;20.20;92.80;;;;;;5033593;28;20094;-73
2023/12/21 10:48:40;;;;;;;15.48;2.47;;;20.10;92.90;;;;;;5034546;28;20021;-73
2023/12/21 10:51:09;;;;;;;25.85;3.30;;;20.20;93.10;;;;;;5048413;28;20053;-73
2023/12/21 10:53:37;;;;;;;19.40;3.17;;;20.30;93.00;;;;;;5053246;28;20393;-73
2023/12/21 10:56:06;;;;;;;17.50;2.45;;;20.30;93.00;;;;;;5056435;28;20056;-73
2023/12/21 10:58:34;;;;;;;23.23;3.15;;;20.30;93.00;;;;;;5055946;28;20020;-73
2023/12/21 11:01:19;;;;;;;;;;;;;;;;;;;;;
2023/12/21 11:03:50;;;;;;;13.93;2.55;;;20.30;93.10;;;;;;5056397;28;20043;-73
2023/12/21 11:06:21;;;;;;;18.63;2.55;;;20.40;93.00;;;;;;5056660;28;20025;-73
2023/12/21 11:09:21;;;;;;;16.10;2.97;;;20.40;92.90;;;;;;5032791;28;20519;-73
2023/12/21 11:15:14;;;;;;;20.75;3.53;;;20.30;93.20;;;;;;5054500;28;20393;-73
2023/12/21 11:17:44;;;;;;;22.80;2.97;;;20.30;93.20;;;;;;5052055;28;20464;-72
2023/12/21 11:20:16;;;;;;;20.02;3.05;;;20.30;93.50;;;;;;5055703;28;20449;-72
2023/12/21 11:22:44;;;;;;;14.85;2.42;;;20.30;93.40;;;;;;5050413;28;20029;-73
2023/12/21 11:25:17;;;;;;;21.30;3.25;;;20.20;93.50;;;;;;5054899;28;20028;-73
2023/12/21 11:27:45;;;;;;;17.20;2.17;;;20.50;93.20;;;;;;5054566;28;20036;-74
2023/12/21 11:30:35;;;;;;;19.25;2.80;;;20.50;93.20;;;;;;5051758;28;20477;-72
2023/12/21 11:33:13;;;;;;;13.85;2.50;;;20.50;93.10;;;;;;5054201;28;20068;-72
2023/12/21 11:35:41;;;;;;;18.52;3.20;;;20.50;92.90;;;;;;5053014;28;20371;-72
2023/12/21 11:38:13;;;;;;;15.05;3.72;;;20.40;93.40;;;;;;5048698;28;20024;-72
2023/12/21 11:40:42;;;;;;;22.23;3.35;;;20.30;93.50;;;;;;5052233;28;20099;-74
2023/12/21 11:43:31;;;;;;;15.23;2.92;;;20.20;93.40;;;;;;5052053;28;20039;-74
2023/12/21 11:46:01;;;;;;;20.10;4.13;;;20.10;93.70;;;;;;5044381;28;20516;-73
2023/12/21 11:48:35;;;;;;;17.33;3.17;;;20.10;94.00;;;;;;5028376;28;20406;-73
2023/12/21 11:51:03;;;;;;;17.02;2.75;;;20.10;94.00;;;;;;5053119;28;20053;-73
2023/12/21 11:53:31;;;;;;;16.23;3.00;;;20.10;94.10;;;;;;5046319;28;20125;-73
2023/12/21 11:56:21;;;;;;;20.95;3.63;;;20.10;94.10;;;;;;5046862;28;20517;-73
2023/12/21 11:58:49;;;;;;;17.15;2.58;;;20.10;94.20;;;;;;5046226;28;20412;-72
2023/12/21 12:01:27;;;;;;;22.35;2.58;;;20.20;94.40;;;;;;5047955;28;20033;-72
2023/12/21 12:03:55;;;;;;;15.65;2.70;;;20.20;94.20;;;;;;5041813;28;20072;-72
2023/12/21 12:06:25;;;;;;;18.60;3.42;;;20.30;94.20;;;;;;5028709;28;20029;-72
2023/12/21 12:08:53;;;;;;;16.02;2.85;;;20.10;94.20;;;;;;5054359;28;20032;-73
2023/12/21 12:11:20;;;;;;;14.10;2.25;;;20.10;94.50;;;;;;5051691;28;20504;-72
2023/12/21 12:13:48;;;;;;;26.00;2.92;;;20.00;94.50;;;;;;5052314;28;20079;-72
2023/12/21 12:16:19;;;;;;;15.18;2.40;;;20.00;94.70;;;;;;5055595;28;20028;-74
2023/12/21 12:18:46;;;;;;;19.10;2.38;;;20.10;94.50;;;;;;5048047;28;20493;-72
2023/12/21 12:24:07;;;;;;;24.00;3.13;;;19.90;95.10;;;;;;5049788;28;20079;-74
2023/12/21 12:26:35;;;;;;;18.08;2.58;;;19.90;95.30;;;;;;5054441;28;20409;-73
2023/12/21 12:32:33;;;;;;;12.75;2.20;;;19.90;95.50;;;;;;5047738;28;20056;-73
2023/12/21 12:35:06;;;;;;;14.05;2.90;;;20.00;95.50;;;;;;5044688;28;20039;-74
2023/12/21 12:37:47;;;;;;;13.75;2.28;;;19.90;95.70;;;;;;5055122;28;20062;-74
2023/12/21 12:40:14;;;;;;;17.88;2.33;;;19.70;95.80;;;;;;5054500;28;20118;-74
2023/12/21 12:43:22;;;;;;;12.35;2.28;;;19.60;96.10;;;;;;5026633;28;20024;-74
2023/12/21 12:45:50;;;;;;;12.48;2.20;;;19.60;96.10;;;;;;5053139;28;20549;-74
2023/12/21 12:48:22;;;;;;;14.25;2.55;;;19.50;96.50;;;;;;5047665;28;20402;-75
2023/12/21 12:50:50;;;;;;;14.30;2.55;;;19.40;96.70;;;;;;5047124;28;20057;-75
2023/12/21 12:53:18;;;;;;;14.82;2.40;;;19.40;96.70;;;;;;5029992;28;20036;-74
2023/12/21 12:55:55;;;;;;;14.63;2.08;;;19.40;96.90;;;;;;5055062;28;20068;-74
2023/12/21 12:58:31;;;;;;;15.98;2.10;;;19.40;97.10;;;;;;5034417;28;20025;-76